R5462 YADG-YADG

Flight info

Callsign R5462
Flight time 0h 2m
Altitude 3000
Route SW YADG TRAINING AREA
Aircraft CRUZ/L-V/N

Departure

Time 2026-04-27 04:01
Airport Aldinga Airport (YADG)

Arrival

Time 2026-04-27 04:04
Airport Aldinga Airport (YADG)
Time Latitude Longitude Altitude Speed Heading
2026-04-27 03:55 -35.28728 138.49217 117 ft 0 kts 54°
2026-04-27 03:56 -35.28723 138.49216 117 ft 4 kts 294°
2026-04-27 03:56 -35.28809 138.49268 118 ft 29 kts 142°
2026-04-27 03:56 -35.28875 138.49347 119 ft 9 kts 350°
2026-04-27 03:57 -35.28847 138.49306 118 ft 9 kts 143°
2026-04-27 03:57 -35.28868 138.49345 119 ft 0 kts 133°
2026-04-27 03:58 -35.28879 138.49345 119 ft 0 kts 182°
2026-04-27 03:58 -35.28905 138.49362 120 ft 10 kts 143°
2026-04-27 03:58 -35.28839 138.49451 123 ft 11 kts 33°
2026-04-27 03:59 -35.28764 138.49513 124 ft 27 kts 35°
2026-04-27 03:59 -35.28599 138.49654 127 ft 25 kts 37°
2026-04-27 03:59 -35.28557 138.49686 127 ft 16 kts 196°
2026-04-27 03:59 -35.28743 138.49533 124 ft 21 kts 212°
2026-04-27 04:00 -35.28808 138.49474 124 ft 8 kts 208°
2026-04-27 04:00 -35.28857 138.49423 122 ft 14 kts 295°
2026-04-27 04:00 -35.28688 138.49245 117 ft 35 kts 323°
2026-04-27 04:00 -35.28588 138.49133 114 ft 6 kts 295°
2026-04-27 04:01 -35.28583 138.49142 114 ft 2 kts 142°
2026-04-27 04:01 -35.28793 138.49348 120 ft 77 kts 142°
2026-04-27 04:01 -35.29239 138.49837 487 ft 86 kts 141°
2026-04-27 04:01 -35.29817 138.49832 834 ft 98 kts 208°
2026-04-27 04:02 -35.30246 138.49123 1117 ft 115 kts 242°
2026-04-27 04:02 -35.30710 138.48198 1371 ft 129 kts 233°
2026-04-27 04:02 -35.31281 138.47531 2009 ft 106 kts 206°
2026-04-27 04:02 -35.31882 138.46942 1867 ft 115 kts 227°
2026-04-27 04:03 -35.32227 138.46118 2093 ft 112 kts 274°
2026-04-27 04:03 -35.32527 138.45705 2502 ft 88 kts 189°
2026-04-27 04:03 -35.33300 138.45439 2012 ft 148 kts 191°
2026-04-27 04:03 -35.33922 138.44917 2949 ft 77 kts 260°
2026-04-27 04:04 -35.33704 138.44478 754 ft 208 kts 305°
2026-04-27 04:04 -35.33751 138.44054 0 ft 6 kts 219°
2026-04-27 04:04 -35.33781 138.44025 0 ft 2 kts 220°
2026-04-27 04:04 -35.33788 138.44017 0 ft 0 kts 217°
2026-04-27 04:05 -35.33790 138.44014 0 ft 0 kts 216°
2026-04-27 04:05 -35.28664 138.49225 117 ft 51 kts 136°
2026-04-27 04:05 -35.29101 138.49628 294 ft 88 kts 160°
2026-04-27 04:06 -35.29548 138.49286 694 ft 93 kts 231°
2026-04-27 04:06 -35.29972 138.48561 867 ft 121 kts 229°
2026-04-27 04:06 -35.30557 138.47786 1257 ft 122 kts 218°
2026-04-27 04:07 -35.31531 138.46361 1848 ft 105 kts 238°
2026-04-27 04:07 -35.31896 138.45548 1898 ft 118 kts 242°
2026-04-27 04:07 -35.32246 138.44652 2151 ft 101 kts 275°
2026-04-27 04:07 -35.31854 138.44102 2392 ft 82 kts 346°
2026-04-27 04:08 -35.31259 138.44110 2302 ft 88 kts 11°
2026-04-27 04:08 -35.30767 138.44313 2119 ft 77 kts 42°
2026-04-27 04:08 -35.30534 138.44870 1867 ft 77 kts 71°
2026-04-27 04:08 -35.30421 138.45505 1614 ft 76 kts 76°
2026-04-27 04:09 -35.30327 138.46129 1358 ft 76 kts 80°
2026-04-27 04:09 -35.30249 138.46767 1107 ft 75 kts 80°
2026-04-27 04:09 -35.30203 138.47423 709 ft 90 kts 97°
2026-04-27 04:09 -35.30055 138.48022 536 ft 77 kts 57°
2026-04-27 04:10 -35.29742 138.48540 293 ft 75 kts 54°
2026-04-27 04:10 -35.29387 138.48978 112 ft 68 kts 39°
2026-04-27 04:10 -35.29168 138.49213 116 ft 20 kts 34°
2026-04-27 04:10 -35.29127 138.49249 117 ft 0 kts 44°
2026-04-27 04:11 -35.29013 138.49303 118 ft 44 kts 37°
2026-04-27 04:11 -35.28791 138.49411 122 ft 24 kts 266°
2026-04-27 04:11 -35.28694 138.49249 117 ft 32 kts 329°
2026-04-27 04:12 -35.28578 138.49136 114 ft 8 kts 117°
2026-04-27 04:12 -35.28811 138.49368 125 ft 74 kts 136°
2026-04-27 04:12 -35.29274 138.49213 418 ft 90 kts 226°
2026-04-27 04:12 -35.29688 138.48511 717 ft 107 kts 224°
2026-04-27 04:13 -35.30313 138.48131 1190 ft 99 kts 199°
2026-04-27 04:13 -35.30768 138.47464 1483 ft 114 kts 247°
2026-04-27 04:13 -35.31153 138.46672 2050 ft 96 kts 227°
2026-04-27 04:13 -35.31599 138.45962 2298 ft 115 kts 235°
2026-04-27 04:14 -35.32020 138.45148 886 ft 190 kts 237°
2026-04-27 04:14 -35.32980 138.44492 706 ft 109 kts 205°
2026-04-27 04:14 -35.33626 138.44203 256 ft 111 kts 173°
2026-04-27 04:14 -35.34339 138.44251 33 ft 88 kts 185°
2026-04-27 04:15 -35.34909 138.44063 39 ft 98 kts 191°
2026-04-27 04:15 -35.35242 138.43372 130 ft 127 kts 263°
2026-04-27 04:15 -35.35741 138.42374 31 ft 154 kts 226°
2026-04-27 04:15 -35.36449 138.41341 64 ft 163 kts 233°
2026-04-27 04:16 -35.36788 138.40060 246 ft 153 kts 260°
2026-04-27 04:16 -35.37146 138.38794 97 ft 162 kts 224°
2026-04-27 04:16 -35.37124 138.37674 290 ft 144 kts 214°
2026-04-27 04:16 -35.37688 138.36968 293 ft 106 kts 254°
2026-04-27 04:17 -35.37912 138.36057 153 ft 118 kts 243°
2026-04-27 04:17 -35.38356 138.35684 674 ft 80 kts 195°
2026-04-27 04:17 -35.38826 138.35712 599 ft 78 kts 70°
2026-04-27 04:17 -35.38650 138.35207 99 ft 158 kts 249°
2026-04-27 04:18 -35.39345 138.34300 450 ft 132 kts 206°
2026-04-27 04:18 -35.39432 138.33449 994 ft 115 kts 328°
2026-04-27 04:18 -35.39408 138.33054 1341 ft 105 kts 167°
2026-04-27 04:18 -35.40244 138.32805 863 ft 140 kts 189°
2026-04-27 04:19 -35.41309 138.32558 56 ft 162 kts 194°
2026-04-27 04:19 -35.42138 138.31992 208 ft 132 kts 206°
2026-04-27 04:19 -35.42973 138.31642 51 ft 130 kts 201°
2026-04-27 04:19 -35.43531 138.31317 2 ft 2 kts 201°
2026-04-27 04:20 -35.43547 138.31311 0 ft 2 kts 205°
2026-04-27 04:20 -35.43554 138.31306 0 ft 0 kts 202°